sensor_id;sensor_type;location;lat;lon;timestamp;pressure;altitude;pressure_sealevel;temperature;humidity
30873;BME280;17579;42.690;2.586;2022-12-24T00:00:27;97450.34;;;15.59;49.14
30873;BME280;17579;42.690;2.586;2022-12-24T00:02:53;97446.50;;;15.62;49.08
30873;BME280;17579;42.690;2.586;2022-12-24T00:05:19;97442.28;;;15.67;48.89
30873;BME280;17579;42.690;2.586;2022-12-24T00:07:44;97437.28;;;15.72;48.89
30873;BME280;17579;42.690;2.586;2022-12-24T00:10:10;97428.94;;;15.75;48.89
30873;BME280;17579;42.690;2.586;2022-12-24T00:12:36;97430.44;;;15.78;48.76
30873;BME280;17579;42.690;2.586;2022-12-24T00:15:03;97425.44;;;15.83;48.61
30873;BME280;17579;42.690;2.586;2022-12-24T00:17:28;97424.41;;;15.84;48.33
30873;BME280;17579;42.690;2.586;2022-12-24T00:19:54;97415.59;;;15.84;47.98
30873;BME280;17579;42.690;2.586;2022-12-24T00:22:19;97421.75;;;15.84;47.99
30873;BME280;17579;42.690;2.586;2022-12-24T00:24:45;97424.41;;;15.84;48.50
30873;BME280;17579;42.690;2.586;2022-12-24T00:27:10;97416.41;;;15.84;48.40
30873;BME280;17579;42.690;2.586;2022-12-24T00:29:36;97424.25;;;15.86;48.09
30873;BME280;17579;42.690;2.586;2022-12-24T00:32:01;97419.75;;;15.86;48.12
30873;BME280;17579;42.690;2.586;2022-12-24T00:34:27;97424.91;;;15.88;48.28
30873;BME280;17579;42.690;2.586;2022-12-24T00:36:52;97423.25;;;15.87;48.50
30873;BME280;17579;42.690;2.586;2022-12-24T00:39:18;97423.91;;;15.89;48.03
30873;BME280;17579;42.690;2.586;2022-12-24T00:41:43;97425.38;;;15.91;47.96
30873;BME280;17579;42.690;2.586;2022-12-24T00:44:09;97430.53;;;15.93;48.10
30873;BME280;17579;42.690;2.586;2022-12-24T00:46:37;97429.38;;;15.96;48.42
30873;BME280;17579;42.690;2.586;2022-12-24T00:49:04;97425.34;;;16.00;48.16
30873;BME280;17579;42.690;2.586;2022-12-24T00:51:30;97427.03;;;16.01;47.64
30873;BME280;17579;42.690;2.586;2022-12-24T00:53:56;97428.34;;;16.05;48.13
30873;BME280;17579;42.690;2.586;2022-12-24T00:56:21;97416.81;;;16.04;47.43
30873;BME280;17579;42.690;2.586;2022-12-24T00:58:47;97419.66;;;16.03;47.85
30873;BME280;17579;42.690;2.586;2022-12-24T01:01:13;97419.31;;;16.06;47.71
30873;BME280;17579;42.690;2.586;2022-12-24T01:03:39;97424.81;;;16.04;47.89
30873;BME280;17579;42.690;2.586;2022-12-24T01:06:07;97417.16;;;16.01;47.54
30873;BME280;17579;42.690;2.586;2022-12-24T01:08:34;97422.03;;;15.98;47.38
30873;BME280;17579;42.690;2.586;2022-12-24T01:11:01;97425.03;;;15.94;47.50
30873;BME280;17579;42.690;2.586;2022-12-24T01:13:27;97420.72;;;15.93;47.42
30873;BME280;17579;42.690;2.586;2022-12-24T01:15:53;97425.38;;;15.91;47.62
30873;BME280;17579;42.690;2.586;2022-12-24T01:18:19;97431.91;;;15.89;47.43
30873;BME280;17579;42.690;2.586;2022-12-24T01:20:44;97432.06;;;15.87;47.42
30873;BME280;17579;42.690;2.586;2022-12-24T01:23:10;97431.44;;;15.85;47.90
30873;BME280;17579;42.690;2.586;2022-12-24T01:25:37;97436.94;;;15.84;47.55
30873;BME280;17579;42.690;2.586;2022-12-24T01:28:03;97437.09;;;15.82;47.88
30873;BME280;17579;42.690;2.586;2022-12-24T01:30:29;97441.78;;;15.80;47.71
30873;BME280;17579;42.690;2.586;2022-12-24T01:32:54;97445.47;;;15.79;47.96
30873;BME280;17579;42.690;2.586;2022-12-24T01:35:20;97433.09;;;15.78;48.07
30873;BME280;17579;42.690;2.586;2022-12-24T01:37:45;97447.28;;;15.79;47.95
30873;BME280;17579;42.690;2.586;2022-12-24T01:40:15;97433.94;;;15.79;47.92
30873;BME280;17579;42.690;2.586;2022-12-24T01:42:52;97443.63;;;15.80;47.61
30873;BME280;17579;42.690;2.586;2022-12-24T01:45:51;97448.59;;;15.74;47.85
30873;BME280;17579;42.690;2.586;2022-12-24T01:53:46;97450.09;;;15.77;47.44
30873;BME280;17579;42.690;2.586;2022-12-24T01:56:13;97450.44;;;15.74;47.61
30873;BME280;17579;42.690;2.586;2022-12-24T02:01:08;97445.63;;;15.69;47.73
30873;BME280;17579;42.690;2.586;2022-12-24T02:03:33;97452.81;;;15.69;47.76
30873;BME280;17579;42.690;2.586;2022-12-24T02:05:59;97447.47;;;15.69;47.76
30873;BME280;17579;42.690;2.586;2022-12-24T02:08:25;97445.63;;;15.69;47.95
30873;BME280;17579;42.690;2.586;2022-12-24T02:11:18;97455.31;;;15.62;48.18
30873;BME280;17579;42.690;2.586;2022-12-24T02:13:50;97447.31;;;15.62;48.25
30873;BME280;17579;42.690;2.586;2022-12-24T02:19:45;97438.03;;;15.50;48.06
30873;BME280;17579;42.690;2.586;2022-12-24T02:25:40;97435.06;;;15.45;48.54
30873;BME280;17579;42.690;2.586;2022-12-24T02:28:26;97439.25;;;15.39;48.99
30873;BME280;17579;42.690;2.586;2022-12-24T02:31:02;97439.53;;;15.44;49.45
30873;BME280;17579;42.690;2.586;2022-12-24T02:33:35;97434.22;;;15.44;49.68
30873;BME280;17579;42.690;2.586;2022-12-24T02:36:12;97433.03;;;15.47;49.83
30873;BME280;17579;42.690;2.586;2022-12-24T02:38:49;97426.38;;;15.51;49.81
30873;BME280;17579;42.690;2.586;2022-12-24T02:41:23;97420.88;;;15.52;49.80
30873;BME280;17579;42.690;2.586;2022-12-24T02:43:50;97430.81;;;15.58;50.24
30873;BME280;17579;42.690;2.586;2022-12-24T02:46:21;97423.84;;;15.57;50.21
30873;BME280;17579;42.690;2.586;2022-12-24T02:48:48;97423.34;;;15.62;50.12
30873;BME280;17579;42.690;2.586;2022-12-24T02:51:15;97418.47;;;15.66;50.40
30873;BME280;17579;42.690;2.586;2022-12-24T02:53:41;97422.81;;;15.67;50.33
30873;BME280;17579;42.690;2.586;2022-12-24T02:59:33;97418.66;;;15.64;50.03
30873;BME280;17579;42.690;2.586;2022-12-24T03:02:23;97422.66;;;15.60;50.12
30873;BME280;17579;42.690;2.586;2022-12-24T03:08:05;97415.69;;;15.59;50.17
30873;BME280;17579;42.690;2.586;2022-12-24T03:10:52;97429.19;;;15.57;50.20
30873;BME280;17579;42.690;2.586;2022-12-24T03:13:20;97418.19;;;15.61;50.58
30873;BME280;17579;42.690;2.586;2022-12-24T03:15:49;97416.50;;;15.59;50.78
30873;BME280;17579;42.690;2.586;2022-12-24T03:18:22;97413.19;;;15.57;50.62
30873;BME280;17579;42.690;2.586;2022-12-24T03:21:11;97413.69;;;15.53;50.67
30873;BME280;17579;42.690;2.586;2022-12-24T03:23:39;97416.69;;;15.58;50.72
30873;BME280;17579;42.690;2.586;2022-12-24T03:26:08;97426.69;;;15.56;50.66
30873;BME280;17579;42.690;2.586;2022-12-24T03:28:36;97438.34;;;15.55;50.85
30873;BME280;17579;42.690;2.586;2022-12-24T03:31:04;97442.03;;;15.54;51.05
30873;BME280;17579;42.690;2.586;2022-12-24T03:33:30;97436.69;;;15.54;50.92
30873;BME280;17579;42.690;2.586;2022-12-24T03:35:55;97434.38;;;15.51;50.67
30873;BME280;17579;42.690;2.586;2022-12-24T03:38:21;97428.22;;;15.50;50.53
30873;BME280;17579;42.690;2.586;2022-12-24T03:40:46;97427.88;;;15.45;50.72
30873;BME280;17579;42.690;2.586;2022-12-24T03:43:12;97428.06;;;15.44;50.85
30873;BME280;17579;42.690;2.586;2022-12-24T03:45:37;97433.75;;;15.40;50.77
30873;BME280;17579;42.690;2.586;2022-12-24T03:48:04;97430.56;;;15.37;50.71
30873;BME280;17579;42.690;2.586;2022-12-24T03:50:29;97417.94;;;15.31;50.66
30873;BME280;17579;42.690;2.586;2022-12-24T03:52:55;97423.63;;;15.28;50.75
30873;BME280;17579;42.690;2.586;2022-12-24T03:55:21;97425.59;;;15.25;50.83
30873;BME280;17579;42.690;2.586;2022-12-24T03:57:46;97425.13;;;15.22;50.75
30873;BME280;17579;42.690;2.586;2022-12-24T04:00:12;97426.47;;;15.18;50.68
30873;BME280;17579;42.690;2.586;2022-12-24T04:02:39;97433.97;;;15.14;50.99
30873;BME280;17579;42.690;2.586;2022-12-24T04:05:05;97422.00;;;15.10;51.02
30873;BME280;17579;42.690;2.586;2022-12-24T04:07:32;97423.34;;;15.06;51.06
30873;BME280;17579;42.690;2.586;2022-12-24T04:09:58;97419.00;;;15.05;50.83
30873;BME280;17579;42.690;2.586;2022-12-24T04:12:23;97423.66;;;15.03;50.73
30873;BME280;17579;42.690;2.586;2022-12-24T04:14:49;97425.81;;;14.99;50.84
30873;BME280;17579;42.690;2.586;2022-12-24T04:17:15;97425.53;;;14.94;50.79
30873;BME280;17579;42.690;2.586;2022-12-24T04:19:40;97426.00;;;14.89;50.94
30873;BME280;17579;42.690;2.586;2022-12-24T04:22:06;97428.19;;;14.86;50.58
30873;BME280;17579;42.690;2.586;2022-12-24T04:24:31;97424.84;;;14.84;50.66
30873;BME280;17579;42.690;2.586;2022-12-24T04:26:57;97434.66;;;14.83;50.75
30873;BME280;17579;42.690;2.586;2022-12-24T04:29:22;97427.50;;;14.84;50.61
30873;BME280;17579;42.690;2.586;2022-12-24T04:31:48;97434.84;;;14.82;50.45
30873;BME280;17579;42.690;2.586;2022-12-24T04:34:15;97439.50;;;14.80;50.44
30873;BME280;17579;42.690;2.586;2022-12-24T04:36:40;97441.31;;;14.79;50.69
30873;BME280;17579;42.690;2.586;2022-12-24T04:39:06;97442.47;;;14.77;50.78
30873;BME280;17579;42.690;2.586;2022-12-24T04:41:31;97444.66;;;14.73;50.59
30873;BME280;17579;42.690;2.586;2022-12-24T04:43:57;97444.16;;;14.69;50.78
30873;BME280;17579;42.690;2.586;2022-12-24T04:46:25;97445.81;;;14.62;50.72
30873;BME280;17579;42.690;2.586;2022-12-24T04:48:53;97446.13;;;14.59;50.77
30873;BME280;17579;42.690;2.586;2022-12-24T04:51:19;97446.13;;;14.59;50.57
30873;BME280;17579;42.690;2.586;2022-12-24T04:53:45;97441.78;;;14.58;50.74
30873;BME280;17579;42.690;2.586;2022-12-24T04:56:22;97452.44;;;14.50;50.88
30873;BME280;17579;42.690;2.586;2022-12-24T04:58:48;97448.63;;;14.52;50.94
30873;BME280;17579;42.690;2.586;2022-12-24T05:01:20;97443.94;;;14.46;51.06
30873;BME280;17579;42.690;2.586;2022-12-24T05:03:45;97449.78;;;14.50;51.07
30873;BME280;17579;42.690;2.586;2022-12-24T05:06:13;97447.94;;;14.50;51.12
30873;BME280;17579;42.690;2.586;2022-12-24T05:08:39;97438.13;;;14.51;51.30
30873;BME280;17579;42.690;2.586;2022-12-24T05:11:05;97436.16;;;14.53;51.39
30873;BME280;17579;42.690;2.586;2022-12-24T05:13:31;97436.78;;;14.55;51.14
30873;BME280;17579;42.690;2.586;2022-12-24T05:15:57;97435.97;;;14.54;51.20
30873;BME280;17579;42.690;2.586;2022-12-24T05:18:23;97430.31;;;14.58;51.27
30873;BME280;17579;42.690;2.586;2022-12-24T05:20:49;97431.81;;;14.60;51.20
30873;BME280;17579;42.690;2.586;2022-12-24T05:23:17;97429.53;;;14.65;51.33
30873;BME280;17579;42.690;2.586;2022-12-24T05:25:55;97420.19;;;14.69;51.49
30873;BME280;17579;42.690;2.586;2022-12-24T05:28:33;97421.34;;;14.75;51.42
30873;BME280;17579;42.690;2.586;2022-12-24T05:30:58;97410.53;;;14.77;51.50
30873;BME280;17579;42.690;2.586;2022-12-24T05:33:23;97412.88;;;14.80;51.38
30873;BME280;17579;42.690;2.586;2022-12-24T05:35:51;97415.69;;;14.78;51.10
30873;BME280;17579;42.690;2.586;2022-12-24T05:38:16;97414.06;;;14.77;51.08
30873;BME280;17579;42.690;2.586;2022-12-24T05:40:42;97410.69;;;14.75;51.20
30873;BME280;17579;42.690;2.586;2022-12-24T05:43:07;97403.06;;;14.72;51.23
30873;BME280;17579;42.690;2.586;2022-12-24T05:45:33;97413.06;;;14.70;50.99
30873;BME280;17579;42.690;2.586;2022-12-24T05:47:58;97405.25;;;14.68;51.45
30873;BME280;17579;42.690;2.586;2022-12-24T05:50:24;97402.91;;;14.65;51.19
30873;BME280;17579;42.690;2.586;2022-12-24T05:52:50;97397.72;;;14.64;51.08
30873;BME280;17579;42.690;2.586;2022-12-24T05:55:15;97401.56;;;14.61;51.27
30873;BME280;17579;42.690;2.586;2022-12-24T05:57:41;97404.38;;;14.60;51.54
30873;BME280;17579;42.690;2.586;2022-12-24T06:00:07;97400.22;;;14.57;51.35
30873;BME280;17579;42.690;2.586;2022-12-24T06:02:33;97399.53;;;14.55;51.16
30873;BME280;17579;42.690;2.586;2022-12-24T06:04:59;97402.19;;;14.55;51.24
30873;BME280;17579;42.690;2.586;2022-12-24T06:07:24;97402.53;;;14.52;51.40
30873;BME280;17579;42.690;2.586;2022-12-24T06:09:50;97394.88;;;14.49;51.25
30873;BME280;17579;42.690;2.586;2022-12-24T06:12:15;97395.88;;;14.48;51.25
30873;BME280;17579;42.690;2.586;2022-12-24T06:14:41;97404.72;;;14.48;51.33
30873;BME280;17579;42.690;2.586;2022-12-24T06:17:07;97401.38;;;14.46;51.14
30873;BME280;17579;42.690;2.586;2022-12-24T06:19:32;97395.38;;;14.44;51.28
30873;BME280;17579;42.690;2.586;2022-12-24T06:21:58;97394.88;;;14.41;51.22
30873;BME280;17579;42.690;2.586;2022-12-24T06:24:23;97399.53;;;14.38;51.24
30873;BME280;17579;42.690;2.586;2022-12-24T06:26:49;97403.19;;;14.37;51.24
30873;BME280;17579;42.690;2.586;2022-12-24T06:29:14;97390.88;;;14.36;51.47
30873;BME280;17579;42.690;2.586;2022-12-24T06:31:40;97395.56;;;14.34;51.61
30873;BME280;17579;42.690;2.586;2022-12-24T06:34:05;97393.53;;;14.36;51.23
30873;BME280;17579;42.690;2.586;2022-12-24T06:36:31;97388.91;;;14.38;51.59
30873;BME280;17579;42.690;2.586;2022-12-24T06:38:56;97385.91;;;14.42;51.48
30873;BME280;17579;42.690;2.586;2022-12-24T06:41:22;97377.59;;;14.45;51.50
30873;BME280;17579;42.690;2.586;2022-12-24T06:43:50;97390.56;;;14.48;51.44
30873;BME280;17579;42.690;2.586;2022-12-24T06:46:17;97368.94;;;14.51;51.68
30873;BME280;17579;42.690;2.586;2022-12-24T06:48:43;97367.13;;;14.51;51.40
30873;BME280;17579;42.690;2.586;2022-12-24T06:51:10;97384.59;;;14.54;51.23
30873;BME280;17579;42.690;2.586;2022-12-24T06:53:35;97372.25;;;14.53;51.32
30873;BME280;17579;42.690;2.586;2022-12-24T06:56:03;97373.09;;;14.53;51.18
30873;BME280;17579;42.690;2.586;2022-12-24T06:58:29;97375.75;;;14.53;51.10
30873;BME280;17579;42.690;2.586;2022-12-24T07:00:55;97369.78;;;14.51;51.37
30873;BME280;17579;42.690;2.586;2022-12-24T07:03:21;97369.78;;;14.51;51.31
30873;BME280;17579;42.690;2.586;2022-12-24T07:05:47;97379.75;;;14.49;51.35
30873;BME280;17579;42.690;2.586;2022-12-24T07:08:12;97379.44;;;14.52;51.53
30873;BME280;17579;42.690;2.586;2022-12-24T07:10:38;97374.75;;;14.54;51.65
30873;BME280;17579;42.690;2.586;2022-12-24T07:13:04;97383.91;;;14.60;51.48
30873;BME280;17579;42.690;2.586;2022-12-24T07:15:29;97379.25;;;14.62;51.47
30873;BME280;17579;42.690;2.586;2022-12-24T07:17:55;97389.59;;;14.65;51.74
30873;BME280;17579;42.690;2.586;2022-12-24T07:20:20;97383.09;;;14.68;51.63
30873;BME280;17579;42.690;2.586;2022-12-24T07:22:46;97389.91;;;14.70;51.47
30873;BME280;17579;42.690;2.586;2022-12-24T07:25:11;97389.91;;;14.70;51.28
30873;BME280;17579;42.690;2.586;2022-12-24T07:27:38;97390.72;;;14.71;51.14
30873;BME280;17579;42.690;2.586;2022-12-24T07:30:04;97398.91;;;14.69;51.15
30873;BME280;17579;42.690;2.586;2022-12-24T07:32:30;97401.72;;;14.68;50.86
30873;BME280;17579;42.690;2.586;2022-12-24T07:34:56;97403.75;;;14.66;50.94
30873;BME280;17579;42.690;2.586;2022-12-24T07:37:21;97417.03;;;14.66;50.93
30873;BME280;17579;42.690;2.586;2022-12-24T07:39:47;97406.41;;;14.66;51.07
30873;BME280;17579;42.690;2.586;2022-12-24T07:42:12;97410.38;;;14.62;51.25
30873;BME280;17579;42.690;2.586;2022-12-24T07:44:38;97403.53;;;14.59;50.92
30873;BME280;17579;42.690;2.586;2022-12-24T07:47:03;97401.84;;;14.58;50.86
30873;BME280;17579;42.690;2.586;2022-12-24T07:49:29;97411.19;;;14.54;50.94
30873;BME280;17579;42.690;2.586;2022-12-24T07:51:54;97417.50;;;14.53;51.17
30873;BME280;17579;42.690;2.586;2022-12-24T07:54:20;97403.38;;;14.52;51.61
30873;BME280;17579;42.690;2.586;2022-12-24T07:56:46;97415.66;;;14.53;51.02
30873;BME280;17579;42.690;2.586;2022-12-24T07:59:12;97407.53;;;14.55;51.73
30873;BME280;17579;42.690;2.586;2022-12-24T08:01:39;97421.50;;;14.57;51.65
30873;BME280;17579;42.690;2.586;2022-12-24T08:04:04;97417.69;;;14.60;51.77
30873;BME280;17579;42.690;2.586;2022-12-24T08:06:30;97410.53;;;14.60;51.75
30873;BME280;17579;42.690;2.586;2022-12-24T08:08:55;97415.53;;;14.63;51.96
30873;BME280;17579;42.690;2.586;2022-12-24T08:11:21;97415.88;;;14.68;51.93
30873;BME280;17579;42.690;2.586;2022-12-24T08:13:47;97427.69;;;14.74;51.25
30873;BME280;17579;42.690;2.586;2022-12-24T08:16:13;97425.34;;;14.79;51.61
30873;BME280;17579;42.690;2.586;2022-12-24T08:18:39;97427.50;;;14.84;51.33
30873;BME280;17579;42.690;2.586;2022-12-24T08:21:08;97428.84;;;14.88;51.50
30873;BME280;17579;42.690;2.586;2022-12-24T08:23:35;97429.34;;;14.92;51.42
30873;BME280;17579;42.690;2.586;2022-12-24T08:26:06;97429.50;;;14.90;51.45
30873;BME280;17579;42.690;2.586;2022-12-24T08:28:33;97437.16;;;14.93;51.36
30873;BME280;17579;42.690;2.586;2022-12-24T08:30:58;97429.19;;;14.93;51.43
30873;BME280;17579;42.690;2.586;2022-12-24T08:33:24;97434.16;;;14.96;51.54
30873;BME280;17579;42.690;2.586;2022-12-24T08:35:52;97431.31;;;14.98;51.45
30873;BME280;17579;42.690;2.586;2022-12-24T08:38:18;97426.34;;;15.03;51.43
30873;BME280;17579;42.690;2.586;2022-12-24T08:40:44;97429.31;;;15.08;51.06
30873;BME280;17579;42.690;2.586;2022-12-24T08:43:13;97422.47;;;15.14;50.94
30873;BME280;17579;42.690;2.586;2022-12-24T08:45:39;97430.81;;;15.19;51.00
30873;BME280;17579;42.690;2.586;2022-12-24T08:48:06;97428.63;;;15.22;51.17
30873;BME280;17579;42.690;2.586;2022-12-24T08:50:32;97425.47;;;15.27;51.08
30873;BME280;17579;42.690;2.586;2022-12-24T08:52:57;97425.94;;;15.31;51.25
30873;BME280;17579;42.690;2.586;2022-12-24T08:55:24;97417.59;;;15.34;51.06
30873;BME280;17579;42.690;2.586;2022-12-24T08:57:50;97422.41;;;15.38;50.93
30873;BME280;17579;42.690;2.586;2022-12-24T09:00:16;97425.56;;;15.42;50.82
30873;BME280;17579;42.690;2.586;2022-12-24T09:02:41;97427.88;;;15.45;50.88
30873;BME280;17579;42.690;2.586;2022-12-24T09:05:07;97433.03;;;15.47;50.83
30873;BME280;17579;42.690;2.586;2022-12-24T09:07:33;97425.72;;;15.49;50.46
30873;BME280;17579;42.690;2.586;2022-12-24T09:09:58;97423.72;;;15.51;50.54
30873;BME280;17579;42.690;2.586;2022-12-24T09:12:24;97422.38;;;15.55;50.77
30873;BME280;17579;42.690;2.586;2022-12-24T09:14:50;97424.84;;;15.56;50.92
30873;BME280;17579;42.690;2.586;2022-12-24T09:17:17;97433.66;;;15.57;51.25
30873;BME280;17579;42.690;2.586;2022-12-24T09:19:42;97432.69;;;15.58;51.22
30873;BME280;17579;42.690;2.586;2022-12-24T09:22:08;97427.16;;;15.59;51.21
30873;BME280;17579;42.690;2.586;2022-12-24T09:24:34;97435.34;;;15.58;51.08
30873;BME280;17579;42.690;2.586;2022-12-24T09:27:00;97427.34;;;15.58;50.91
30873;BME280;17579;42.690;2.586;2022-12-24T09:29:27;97433.31;;;15.60;50.94
30873;BME280;17579;42.690;2.586;2022-12-24T09:31:53;97433.81;;;15.64;50.84
30873;BME280;17579;42.690;2.586;2022-12-24T09:34:19;97439.81;;;15.66;51.28
30873;BME280;17579;42.690;2.586;2022-12-24T09:36:45;97438.63;;;15.68;51.07
30873;BME280;17579;42.690;2.586;2022-12-24T09:39:11;97431.31;;;15.70;51.45
30873;BME280;17579;42.690;2.586;2022-12-24T09:41:53;97435.16;;;15.68;51.43
30873;BME280;17579;42.690;2.586;2022-12-24T09:44:46;97433.78;;;15.72;51.45
30873;BME280;17579;42.690;2.586;2022-12-24T09:47:26;97443.75;;;15.78;51.17
30873;BME280;17579;42.690;2.586;2022-12-24T09:49:56;97443.25;;;15.83;51.36
30873;BME280;17579;42.690;2.586;2022-12-24T09:52:37;97441.63;;;15.82;51.15
30873;BME280;17579;42.690;2.586;2022-12-24T09:55:22;97437.41;;;15.87;51.23
30873;BME280;17579;42.690;2.586;2022-12-24T09:57:51;97434.53;;;15.97;50.87
30873;BME280;17579;42.690;2.586;2022-12-24T10:00:22;97436.84;;;16.00;50.81
30873;BME280;17579;42.690;2.586;2022-12-24T10:02:48;97431.66;;;16.07;51.04
30873;BME280;17579;42.690;2.586;2022-12-24T10:05:14;97432.28;;;16.09;50.91
30873;BME280;17579;42.690;2.586;2022-12-24T10:08:00;97438.28;;;16.11;50.48
30873;BME280;17579;42.690;2.586;2022-12-24T10:10:51;97440.78;;;16.13;50.71
30873;BME280;17579;42.690;2.586;2022-12-24T10:13:38;97435.75;;;16.18;50.75
30873;BME280;17579;42.690;2.586;2022-12-24T10:16:23;97432.03;;;16.27;50.51
30873;BME280;17579;42.690;2.586;2022-12-24T10:19:05;97430.31;;;16.34;50.53
30873;BME280;17579;42.690;2.586;2022-12-24T10:21:53;97419.94;;;16.39;50.70
30873;BME280;17579;42.690;2.586;2022-12-24T10:24:39;97417.38;;;16.46;50.20
30873;BME280;17579;42.690;2.586;2022-12-24T10:27:14;97419.16;;;16.54;50.49
30873;BME280;17579;42.690;2.586;2022-12-24T10:29:48;97421.09;;;16.60;49.87
30873;BME280;17579;42.690;2.586;2022-12-24T10:32:27;97412.91;;;16.61;50.34
30873;BME280;17579;42.690;2.586;2022-12-24T10:35:10;97413.69;;;16.70;50.00
30873;BME280;17579;42.690;2.586;2022-12-24T10:37:43;97410.47;;;16.75;50.06
30873;BME280;17579;42.690;2.586;2022-12-24T10:40:19;97405.78;;;16.77;50.16
30873;BME280;17579;42.690;2.586;2022-12-24T10:42:49;97403.53;;;16.89;50.26
30873;BME280;17579;42.690;2.586;2022-12-24T10:45:20;97404.66;;;16.94;50.12
30873;BME280;17579;42.690;2.586;2022-12-24T10:47:49;97407.25;;;17.03;49.60
30873;BME280;17579;42.690;2.586;2022-12-24T10:50:27;97400.88;;;17.04;49.81
30873;BME280;17579;42.690;2.586;2022-12-24T10:55:36;97390.84;;;17.21;49.08
30873;BME280;17579;42.690;2.586;2022-12-24T10:58:10;97389.28;;;17.26;50.27
30873;BME280;17579;42.690;2.586;2022-12-24T11:00:37;97385.13;;;17.39;49.46
30873;BME280;17579;42.690;2.586;2022-12-24T11:03:22;97385.41;;;17.44;49.47
30873;BME280;17579;42.690;2.586;2022-12-24T11:06:08;97378.00;;;17.61;50.15
30873;BME280;17579;42.690;2.586;2022-12-24T11:08:36;97385.63;;;17.94;49.82
30873;BME280;17579;42.690;2.586;2022-12-24T11:11:17;97384.19;;;18.13;49.06
30873;BME280;17579;42.690;2.586;2022-12-24T11:13:52;97371.19;;;18.31;48.63
30873;BME280;17579;42.690;2.586;2022-12-24T11:16:34;97371.44;;;18.37;48.71
30873;BME280;17579;42.690;2.586;2022-12-24T11:19:02;97365.78;;;18.46;47.77
30873;BME280;17579;42.690;2.586;2022-12-24T11:21:31;97360.84;;;18.50;47.79
30873;BME280;17579;42.690;2.586;2022-12-24T11:24:07;97351.47;;;18.61;47.72
30873;BME280;17579;42.690;2.586;2022-12-24T11:26:41;97348.25;;;18.72;47.82
30873;BME280;17579;42.690;2.586;2022-12-24T11:29:27;97347.88;;;18.75;47.40
30873;BME280;17579;42.690;2.586;2022-12-24T11:32:14;97344.31;;;18.68;47.55
30873;BME280;17579;42.690;2.586;2022-12-24T11:34:42;97341.88;;;18.73;46.71
30873;BME280;17579;42.690;2.586;2022-12-24T11:37:17;97337.16;;;18.75;47.02
30873;BME280;17579;42.690;2.586;2022-12-24T11:39:50;97328.53;;;18.80;46.79
30873;BME280;17579;42.690;2.586;2022-12-24T11:42:33;97331.19;;;18.80;47.18
30873;BME280;17579;42.690;2.586;2022-12-24T11:45:20;97319.31;;;18.89;46.74
30873;BME280;17579;42.690;2.586;2022-12-24T11:47:46;97320.56;;;18.86;46.15
30873;BME280;17579;42.690;2.586;2022-12-24T11:50:32;97320.41;;;18.66;46.84
30873;BME280;17579;42.690;2.586;2022-12-24T11:53:20;97319.13;;;18.62;47.69
30873;BME280;17579;42.690;2.586;2022-12-24T11:55:51;97309.88;;;18.65;46.82
30873;BME280;17579;42.690;2.586;2022-12-24T12:01:19;97307.63;;;18.68;47.00
30873;BME280;17579;42.690;2.586;2022-12-24T12:03:50;97307.47;;;18.77;46.94
30873;BME280;17579;42.690;2.586;2022-12-24T12:06:34;97301.31;;;18.76;47.07
30873;BME280;17579;42.690;2.586;2022-12-24T12:09:06;97295.78;;;18.84;46.88
30873;BME280;17579;42.690;2.586;2022-12-24T12:11:38;97292.78;;;18.94;47.29
30873;BME280;17579;42.690;2.586;2022-12-24T12:14:04;97299.88;;;19.09;46.81
30873;BME280;17579;42.690;2.586;2022-12-24T12:16:52;97292.63;;;19.09;47.03
30873;BME280;17579;42.690;2.586;2022-12-24T12:19:48;97296.19;;;19.16;47.31
30873;BME280;17579;42.690;2.586;2022-12-24T12:22:31;97294.97;;;19.19;46.78
30873;BME280;17579;42.690;2.586;2022-12-24T12:25:00;97295.22;;;19.24;46.72
30873;BME280;17579;42.690;2.586;2022-12-24T12:27:38;97290.84;;;19.23;46.82
30873;BME280;17579;42.690;2.586;2022-12-24T12:30:19;97290.47;;;19.26;46.77
30873;BME280;17579;42.690;2.586;2022-12-24T12:32:56;97290.28;;;19.34;46.44
30873;BME280;17579;42.690;2.586;2022-12-24T12:35:36;97282.84;;;19.36;46.53
30873;BME280;17579;42.690;2.586;2022-12-24T12:38:11;97278.56;;;19.42;46.49
30873;BME280;17579;42.690;2.586;2022-12-24T12:41:00;97280.44;;;19.48;46.44
30873;BME280;17579;42.690;2.586;2022-12-24T12:55:41;97270.09;;;19.38;46.55
30873;BME280;17579;42.690;2.586;2022-12-24T12:58:24;97267.22;;;19.40;46.34
30873;BME280;17579;42.690;2.586;2022-12-24T13:01:00;97263.72;;;19.46;46.56
30873;BME280;17579;42.690;2.586;2022-12-24T13:03:46;97253.63;;;19.48;46.26
30873;BME280;17579;42.690;2.586;2022-12-24T13:12:32;97259.63;;;19.64;46.36
30873;BME280;17579;42.690;2.586;2022-12-24T13:17:57;97262.78;;;19.74;46.17
30873;BME280;17579;42.690;2.586;2022-12-24T13:20:35;97252.91;;;19.81;45.98
30873;BME280;17579;42.690;2.586;2022-12-24T13:23:18;97254.34;;;19.84;45.62
30873;BME280;17579;42.690;2.586;2022-12-24T13:25:47;97254.97;;;19.86;45.58
30873;BME280;17579;42.690;2.586;2022-12-24T13:28:30;97244.03;;;19.87;45.97
30873;BME280;17579;42.690;2.586;2022-12-24T13:31:24;97247.53;;;19.88;45.91
30873;BME280;17579;42.690;2.586;2022-12-24T13:33:57;97251.44;;;19.85;45.74
30873;BME280;17579;42.690;2.586;2022-12-24T13:36:23;97249.81;;;19.84;45.39
30873;BME280;17579;42.690;2.586;2022-12-24T13:38:56;97253.09;;;19.86;45.94
30873;BME280;17579;42.690;2.586;2022-12-24T13:41:48;97249.81;;;19.91;45.94
30873;BME280;17579;42.690;2.586;2022-12-24T13:44:19;97243.44;;;19.99;45.51
30873;BME280;17579;42.690;2.586;2022-12-24T13:46:51;97242.19;;;20.08;45.31
30873;BME280;17579;42.690;2.586;2022-12-24T13:49:35;97249.41;;;20.07;45.33
30873;BME280;17579;42.690;2.586;2022-12-24T13:52:22;97242.38;;;20.06;45.55
30873;BME280;17579;42.690;2.586;2022-12-24T13:55:05;97241.16;;;20.09;45.40
30873;BME280;17579;42.690;2.586;2022-12-24T14:00:54;97248.19;;;20.10;45.60
30873;BME280;17579;42.690;2.586;2022-12-24T14:06:12;97235.16;;;20.14;45.41
30873;BME280;17579;42.690;2.586;2022-12-24T14:08:47;97238.66;;;20.21;44.78